createdAt,value
2018-05-14T00:02:19.947Z,14.93
2018-05-14T00:04:45.832Z,14.82
2018-05-14T00:07:11.719Z,14.83
2018-05-14T00:09:37.647Z,14.73
2018-05-14T00:12:03.552Z,14.82
2018-05-14T00:14:29.453Z,14.92
2018-05-14T00:16:55.361Z,14.89
2018-05-14T00:19:21.251Z,14.96
2018-05-14T00:21:47.184Z,14.95
2018-05-14T00:24:13.074Z,15.10
2018-05-14T00:26:38.991Z,15.05
2018-05-14T00:29:04.932Z,14.98
2018-05-14T00:31:30.832Z,14.99
2018-05-14T00:33:56.723Z,14.85
2018-05-14T00:36:22.610Z,14.76
2018-05-14T00:38:48.471Z,14.80
2018-05-14T00:41:14.351Z,14.81
2018-05-14T00:43:40.250Z,14.76
2018-05-14T00:46:06.128Z,14.75
2018-05-14T00:48:31.997Z,14.76
2018-05-14T00:50:57.936Z,14.81
2018-05-14T00:53:23.837Z,14.60
2018-05-14T00:55:49.740Z,14.54
2018-05-14T00:58:15.648Z,14.60
2018-05-14T01:00:41.557Z,14.66
2018-05-14T01:03:07.493Z,14.65
2018-05-14T01:05:33.383Z,14.75
2018-05-14T01:07:59.340Z,14.72
2018-05-14T01:10:25.208Z,14.63
2018-05-14T01:12:51.120Z,14.68
2018-05-14T01:15:17.040Z,14.44
2018-05-14T01:17:44.817Z,14.51
2018-05-14T01:20:10.759Z,14.50
2018-05-14T01:22:39.717Z,14.60
2018-05-14T01:25:05.703Z,14.63
2018-05-14T01:27:35.236Z,14.54
2018-05-14T01:30:01.102Z,14.63
2018-05-14T01:32:29.432Z,14.68
2018-05-14T01:34:55.325Z,14.70
2018-05-14T01:37:21.214Z,14.67
2018-05-14T01:39:47.123Z,14.57
2018-05-14T01:42:13.023Z,14.69
2018-05-14T01:44:41.015Z,14.70
2018-05-14T01:47:07.123Z,14.75
2018-05-14T01:49:36.471Z,14.57
2018-05-14T01:52:02.392Z,14.59
2018-05-14T01:54:31.951Z,14.64
2018-05-14T01:56:57.928Z,14.73
2018-05-14T01:59:25.044Z,14.67
2018-05-14T02:01:50.980Z,14.66
2018-05-14T02:04:20.709Z,14.73
2018-05-14T02:06:46.646Z,14.80
2018-05-14T02:09:15.859Z,14.75
2018-05-14T02:11:41.809Z,14.73
2018-05-14T02:14:07.694Z,14.81
2018-05-14T02:16:33.587Z,14.62
2018-05-14T02:18:59.500Z,14.41
2018-05-14T02:21:26.836Z,14.58
2018-05-14T02:23:52.753Z,14.67
2018-05-14T02:26:22.011Z,14.61
2018-05-14T02:28:47.899Z,14.52
2018-05-14T02:31:17.173Z,14.58
2018-05-14T02:33:43.232Z,14.48
2018-05-14T02:36:10.212Z,14.33
2018-05-14T02:38:36.108Z,14.33
2018-05-14T02:41:05.334Z,14.38
2018-05-14T02:43:31.262Z,14.43
2018-05-14T02:46:00.696Z,14.46
2018-05-14T02:48:26.562Z,14.59
2018-05-14T02:50:52.450Z,14.51
2018-05-14T02:53:18.389Z,14.53
2018-05-14T02:55:44.281Z,14.56
2018-05-14T02:58:11.523Z,14.45
2018-05-14T03:00:37.456Z,14.50
2018-05-14T03:03:06.646Z,14.52
2018-05-14T03:05:32.535Z,14.58
2018-05-14T03:08:01.900Z,14.54
2018-05-14T03:10:27.823Z,14.60
2018-05-14T03:12:56.960Z,14.47
2018-05-14T03:15:22.862Z,14.48
2018-05-14T03:17:50.324Z,14.42
2018-05-14T03:20:16.166Z,14.51
2018-05-14T03:22:44.964Z,14.46
2018-05-14T03:25:10.817Z,14.31
2018-05-14T03:27:36.745Z,14.38
2018-05-14T03:30:02.757Z,14.37
2018-05-14T03:32:28.710Z,14.51
2018-05-14T03:34:58.130Z,14.58
2018-05-14T03:37:24.029Z,14.43
2018-05-14T03:39:51.411Z,14.47
2018-05-14T03:42:17.279Z,14.54
2018-05-14T03:44:46.810Z,14.57
2018-05-14T03:47:12.774Z,14.62
2018-05-14T03:49:42.347Z,14.64
2018-05-14T03:52:08.228Z,14.62
2018-05-14T03:54:37.402Z,14.60
2018-05-14T03:57:03.313Z,14.68
2018-05-14T03:59:42.265Z,14.60
2018-05-14T04:02:18.437Z,14.64
2018-05-14T04:04:56.724Z,14.60
2018-05-14T04:07:22.620Z,14.70
2018-05-14T04:09:48.523Z,14.73
2018-05-14T04:12:14.434Z,14.76
2018-05-14T04:14:40.957Z,14.64
2018-05-14T04:17:06.909Z,14.78
2018-05-14T04:19:32.762Z,14.82
2018-05-14T04:21:58.646Z,14.82
2018-05-14T04:24:24.600Z,14.86
2018-05-14T04:26:50.450Z,14.90
2018-05-14T04:29:16.364Z,14.92
2018-05-14T04:31:42.279Z,14.89
2018-05-14T04:34:08.181Z,14.88
2018-05-14T04:36:34.042Z,14.85
2018-05-14T04:39:00.001Z,14.91
2018-05-14T04:41:25.898Z,14.96
2018-05-14T04:43:51.800Z,14.97
2018-05-14T04:46:17.696Z,14.92
2018-05-14T04:48:43.634Z,15.07
2018-05-14T04:51:09.532Z,15.04
2018-05-14T04:53:35.416Z,14.96
2018-05-14T04:56:01.287Z,14.86
2018-05-14T05:07:05.465Z,14.94
2018-05-14T05:09:31.414Z,15.02
2018-05-14T05:11:57.311Z,15.01
2018-05-14T05:14:23.256Z,15.01
2018-05-14T05:16:49.134Z,14.94
2018-05-14T05:19:15.039Z,14.98
2018-05-14T05:21:40.950Z,15.02
2018-05-14T05:24:06.846Z,15.01
2018-05-14T05:26:32.779Z,14.96
2018-05-14T05:28:58.783Z,14.91
2018-05-14T05:31:24.691Z,14.88
2018-05-14T05:33:51.400Z,14.68
2018-05-14T05:36:17.340Z,14.57
2018-05-14T05:38:43.243Z,14.60
2018-05-14T05:41:09.194Z,14.69
2018-05-14T05:43:35.140Z,14.70
2018-05-14T05:46:02.934Z,14.72
2018-05-14T05:48:28.852Z,14.74
2018-05-14T05:50:58.139Z,14.70
2018-05-14T05:53:24.008Z,14.75
2018-05-14T05:55:53.377Z,14.70
2018-05-14T05:58:19.284Z,14.79
2018-05-14T06:00:48.588Z,14.88
2018-05-14T06:03:14.461Z,14.98
2018-05-14T06:05:41.673Z,14.95
2018-05-14T06:08:07.575Z,15.03
2018-05-14T06:10:37.140Z,15.14
2018-05-14T06:13:03.054Z,15.17
2018-05-14T06:15:29.015Z,15.16
2018-05-14T06:17:54.865Z,14.90
2018-05-14T06:20:20.744Z,14.90
2018-05-14T06:22:47.884Z,14.94
2018-05-14T06:25:13.803Z,14.94
2018-05-14T06:27:43.821Z,14.99
2018-05-14T06:30:09.645Z,14.94
2018-05-14T06:32:38.883Z,14.87
2018-05-14T06:35:04.808Z,14.84
2018-05-14T06:37:33.827Z,14.83
2018-05-14T06:39:59.747Z,14.72
2018-05-14T06:42:27.039Z,14.77
2018-05-14T06:44:52.948Z,14.80
2018-05-14T06:47:22.540Z,14.84
2018-05-14T06:49:48.540Z,14.84
2018-05-14T06:52:14.400Z,14.84
2018-05-14T06:54:40.267Z,14.92
2018-05-14T06:57:06.183Z,14.85
2018-05-14T06:59:33.924Z,15.03
2018-05-14T07:01:59.804Z,15.26
2018-05-14T07:04:29.075Z,15.27
2018-05-14T07:06:55.003Z,15.29
2018-05-14T07:09:24.191Z,15.27
2018-05-14T07:11:50.064Z,15.31
2018-05-14T07:14:17.323Z,15.41
2018-05-14T07:16:43.212Z,15.44
2018-05-14T07:19:12.233Z,15.47
2018-05-14T07:33:35.257Z,15.76
2018-05-14T07:36:01.168Z,16.01
2018-05-14T07:38:27.078Z,16.15
2018-05-14T07:40:52.968Z,16.25
2018-05-14T07:43:18.897Z,16.43
2018-05-14T07:45:44.842Z,16.54
2018-05-14T07:48:10.710Z,16.48
2018-05-14T07:50:36.620Z,16.41
2018-05-14T07:53:02.510Z,16.32
2018-05-14T07:55:28.438Z,16.50
2018-05-14T07:57:54.349Z,16.55
2018-05-14T08:00:20.268Z,16.60
2018-05-14T08:02:46.165Z,16.57
2018-05-14T08:05:12.080Z,16.50
2018-05-14T08:07:37.959Z,16.41
2018-05-14T08:10:04.308Z,16.49
2018-05-14T08:12:30.277Z,16.21
2018-05-14T08:14:56.228Z,16.08
2018-05-14T08:17:22.088Z,16.03
2018-05-14T08:19:47.989Z,16.09
2018-05-14T08:22:14.135Z,16.27
2018-05-14T08:24:40.046Z,16.22
2018-05-14T08:27:05.943Z,16.26
2018-05-14T08:29:31.844Z,16.03
2018-05-14T08:31:57.888Z,16.07
2018-05-14T08:34:24.295Z,16.02
2018-05-14T08:36:50.231Z,16.04
2018-05-14T08:39:16.135Z,15.85
2018-05-14T08:41:42.076Z,15.53
2018-05-14T08:44:07.960Z,15.45
2018-05-14T08:46:33.842Z,15.44
2018-05-14T08:48:59.739Z,15.55
2018-05-14T08:51:25.619Z,15.70
2018-05-14T08:53:51.532Z,15.65
2018-05-14T08:56:17.452Z,15.68
2018-05-14T08:58:43.367Z,15.41
2018-05-14T09:01:09.272Z,15.42
2018-05-14T09:03:35.200Z,15.55
2018-05-14T09:06:01.128Z,15.50
2018-05-14T09:08:27.067Z,15.56
2018-05-14T09:10:52.972Z,15.71
2018-05-14T09:13:18.850Z,15.75
2018-05-14T09:15:44.801Z,15.79
2018-05-14T09:18:10.765Z,15.67
2018-05-14T09:20:36.649Z,15.56
2018-05-14T09:23:02.597Z,15.72
2018-05-14T09:25:28.589Z,15.64
2018-05-14T09:27:54.451Z,15.56
2018-05-14T09:30:20.390Z,15.63
2018-05-14T09:32:46.811Z,15.65
2018-05-14T09:35:12.753Z,15.59
2018-05-14T09:37:38.656Z,15.52
2018-05-14T09:40:04.608Z,15.51
2018-05-14T09:42:30.545Z,15.65
2018-05-14T09:44:56.434Z,15.75
2018-05-14T09:47:24.744Z,15.79
2018-05-14T09:49:50.647Z,15.82
2018-05-14T09:52:20.371Z,15.93
2018-05-14T09:54:46.289Z,15.99
2018-05-14T09:57:16.235Z,15.95
2018-05-14T09:59:42.119Z,15.97
2018-05-14T10:02:08.876Z,16.00
2018-05-14T10:04:34.794Z,16.18
2018-05-14T10:07:04.716Z,16.06
2018-05-14T10:09:30.612Z,15.86
2018-05-14T10:11:56.506Z,15.91
2018-05-14T10:14:22.858Z,15.84
2018-05-14T10:16:48.863Z,15.71
2018-05-14T10:19:15.578Z,15.81
2018-05-14T10:21:41.478Z,15.95
2018-05-14T10:24:10.423Z,15.95
2018-05-14T10:26:36.355Z,15.87
2018-05-14T10:29:05.862Z,15.86
2018-05-14T10:31:32.183Z,15.71
2018-05-14T10:33:59.269Z,15.63
2018-05-14T10:36:25.177Z,15.70
2018-05-14T10:38:54.278Z,15.73
2018-05-14T10:52:02.273Z,15.97
2018-05-14T10:54:28.296Z,15.95
2018-05-14T10:56:54.227Z,15.86
2018-05-14T10:59:20.123Z,15.85
2018-05-14T11:01:46.026Z,15.93
2018-05-14T11:04:11.971Z,15.94
2018-05-14T11:06:37.891Z,15.88
2018-05-14T11:09:03.826Z,15.93
2018-05-14T11:17:15.608Z,16.14
2018-05-14T11:19:41.538Z,16.09
2018-05-14T11:22:07.410Z,16.25
2018-05-14T11:24:33.330Z,16.26
2018-05-14T11:26:59.270Z,16.16
2018-05-14T11:29:25.146Z,16.16
2018-05-14T11:31:51.142Z,16.26
2018-05-14T11:34:17.054Z,16.38
2018-05-14T11:36:42.945Z,16.37
2018-05-14T11:39:08.970Z,16.26
2018-05-14T11:41:34.855Z,16.17
2018-05-14T11:44:00.799Z,16.16
2018-05-14T11:46:26.722Z,16.22
2018-05-14T11:48:52.619Z,16.44
2018-05-14T11:51:18.510Z,16.49
2018-05-14T11:53:44.407Z,16.35
2018-05-14T11:56:10.275Z,16.38
2018-05-14T11:58:36.178Z,16.25
2018-05-14T12:01:02.719Z,16.22
2018-05-14T12:03:28.619Z,16.26
2018-05-14T12:05:54.513Z,16.30
2018-05-14T12:08:20.420Z,16.32
2018-05-14T12:10:46.323Z,16.33
2018-05-14T12:13:15.346Z,16.35
2018-05-14T12:15:41.251Z,16.48
2018-05-14T12:18:10.674Z,16.52
2018-05-14T12:20:36.559Z,16.57
2018-05-14T12:23:02.505Z,16.58
2018-05-14T12:25:28.360Z,16.60
2018-05-14T12:27:54.251Z,16.60
2018-05-14T12:30:21.158Z,16.57
2018-05-14T12:32:47.575Z,16.32
2018-05-14T12:35:16.336Z,16.31
2018-05-14T12:37:42.231Z,16.36
2018-05-14T12:48:47.813Z,16.38
2018-05-14T12:51:13.751Z,16.27
2018-05-14T12:53:39.721Z,16.29
2018-05-14T12:56:07.159Z,16.29
2018-05-14T12:58:33.155Z,16.38
2018-05-14T13:01:00.972Z,16.28
2018-05-14T13:03:26.888Z,16.27
2018-05-14T13:05:56.694Z,16.20
2018-05-14T13:08:22.590Z,16.31
2018-05-14T13:10:50.006Z,16.50
2018-05-14T13:13:15.924Z,16.38
2018-05-14T13:15:42.487Z,16.31
2018-05-14T13:18:08.446Z,16.37
2018-05-14T13:20:34.348Z,16.42
2018-05-14T13:23:03.366Z,16.52
2018-05-14T13:25:29.498Z,16.46
2018-05-14T13:27:56.585Z,16.48
2018-05-14T13:30:22.637Z,16.45
2018-05-14T13:32:51.691Z,16.45
2018-05-14T13:35:17.749Z,16.32
2018-05-14T13:37:49.581Z,16.47
2018-05-14T13:40:17.250Z,16.62
2018-05-14T13:42:43.339Z,16.88
2018-05-14T13:45:09.317Z,17.15
2018-05-14T13:47:35.445Z,17.69
2018-05-14T13:50:01.808Z,17.94
2018-05-14T13:52:32.841Z,17.85
2018-05-14T13:54:59.470Z,17.68
2018-05-14T13:57:25.469Z,17.45
2018-05-14T13:59:51.365Z,17.38
2018-05-14T14:02:17.286Z,17.38
2018-05-14T14:04:43.260Z,17.32
2018-05-14T14:07:16.197Z,17.46
2018-05-14T14:09:45.013Z,17.55
2018-05-14T14:12:11.094Z,17.66
2018-05-14T14:14:36.996Z,17.82
2018-05-14T14:17:02.903Z,17.78
2018-05-14T14:19:28.853Z,17.66
2018-05-14T14:21:55.249Z,17.72
2018-05-14T14:24:21.208Z,17.73
2018-05-14T14:26:47.038Z,17.59
2018-05-14T14:29:12.979Z,17.58
2018-05-14T14:31:38.880Z,17.56
2018-05-14T14:34:12.537Z,17.51
2018-05-14T14:36:38.683Z,17.54
2018-05-14T14:39:11.885Z,17.44
2018-05-14T14:41:38.691Z,17.37
2018-05-14T14:44:04.614Z,17.14
2018-05-14T14:46:30.591Z,17.10
2018-05-14T14:48:56.474Z,17.07
2018-05-14T14:51:22.382Z,17.16
2018-05-14T14:53:48.298Z,17.08
2018-05-14T14:56:14.174Z,17.11
2018-05-14T14:58:40.075Z,16.95
2018-05-14T15:01:07.190Z,16.88
2018-05-14T15:03:33.391Z,16.96
2018-05-14T15:05:59.312Z,16.98
2018-05-14T15:08:25.161Z,16.88
2018-05-14T15:10:55.247Z,16.76
2018-05-14T15:13:21.413Z,16.72
2018-05-14T15:15:47.336Z,16.80
2018-05-14T15:18:13.256Z,16.94
2018-05-14T15:20:39.159Z,16.97
2018-05-14T15:23:07.139Z,16.86
2018-05-14T15:25:33.051Z,16.74
2018-05-14T15:28:02.531Z,16.74
2018-05-14T15:30:28.392Z,16.51
2018-05-14T15:32:56.893Z,16.40
2018-05-14T15:35:22.802Z,16.29
2018-05-14T15:37:52.224Z,16.34
2018-05-14T15:40:18.127Z,16.24
2018-05-14T15:42:44.015Z,16.21
2018-05-14T15:45:09.985Z,16.27
2018-05-14T15:47:35.923Z,16.08
2018-05-14T15:50:05.588Z,16.01
2018-05-14T15:52:31.574Z,16.08
2018-05-14T15:54:58.291Z,16.20
2018-05-14T15:57:24.193Z,16.21
2018-05-14T15:59:53.842Z,16.24
2018-05-14T16:02:19.743Z,16.25
2018-05-14T16:04:48.868Z,16.28
2018-05-14T16:07:14.795Z,16.39
2018-05-14T16:09:41.743Z,16.58
2018-05-14T16:12:07.627Z,16.69
2018-05-14T16:14:40.493Z,16.70
2018-05-14T16:17:10.471Z,16.75
2018-05-14T16:19:37.024Z,16.73
2018-05-14T16:22:02.966Z,16.69
2018-05-14T16:24:28.880Z,16.74
2018-05-14T16:26:54.815Z,16.53
2018-05-14T16:29:20.737Z,16.48
2018-05-14T16:31:46.658Z,16.43
2018-05-14T16:34:12.604Z,16.38
2018-05-14T16:36:38.497Z,16.24
2018-05-14T16:39:04.451Z,16.18
2018-05-14T16:41:33.504Z,15.90
2018-05-14T16:43:59.397Z,15.90
2018-05-14T16:46:28.968Z,15.88
2018-05-14T16:48:54.883Z,15.87
2018-05-14T16:51:22.481Z,15.91
2018-05-14T16:53:48.432Z,15.87
2018-05-14T16:56:19.560Z,15.84
2018-05-14T16:58:45.529Z,15.74
2018-05-14T17:01:18.734Z,15.67
2018-05-14T17:03:45.386Z,15.56
2018-05-14T17:06:18.476Z,15.52
2018-05-14T17:08:44.829Z,15.56
2018-05-14T17:11:18.951Z,15.54
2018-05-14T17:13:45.600Z,15.62
2018-05-14T17:16:11.510Z,15.75
2018-05-14T17:18:37.425Z,15.81
2018-05-14T17:21:03.360Z,16.02
2018-05-14T17:23:29.299Z,16.04
2018-05-14T17:25:55.229Z,16.17
2018-05-14T17:28:21.138Z,16.31
2018-05-14T17:30:47.011Z,16.43
2018-05-14T17:33:12.983Z,16.50
2018-05-14T17:35:39.091Z,16.57
2018-05-14T17:38:05.007Z,16.49
2018-05-14T17:40:38.807Z,16.46
2018-05-14T17:43:05.316Z,16.35
2018-05-14T17:45:31.239Z,16.46
2018-05-14T17:47:57.128Z,16.37
2018-05-14T17:50:32.204Z,16.22
2018-05-14T17:52:58.985Z,16.15
2018-05-14T17:55:24.811Z,16.10
2018-05-14T17:57:50.780Z,16.07
2018-05-14T18:00:16.641Z,16.07
2018-05-14T18:02:42.567Z,16.01
2018-05-14T18:05:08.563Z,16.12
2018-05-14T18:07:34.414Z,16.15
2018-05-14T18:10:00.255Z,16.23
2018-05-14T18:12:26.147Z,16.20
2018-05-14T18:14:52.044Z,16.22
2018-05-14T18:17:18.011Z,16.20
2018-05-14T18:19:50.157Z,16.31
2018-05-14T18:22:23.452Z,16.39
2018-05-14T18:24:50.293Z,16.43
2018-05-14T18:27:23.954Z,16.43
2018-05-14T18:29:53.984Z,16.30
2018-05-14T18:32:19.905Z,16.25
2018-05-14T18:34:45.828Z,16.29
2018-05-14T18:37:11.744Z,16.22
2018-05-14T18:39:37.655Z,16.19
2018-05-14T18:42:03.566Z,16.26
2018-05-14T18:44:33.475Z,16.24
2018-05-14T18:46:59.399Z,16.10
2018-05-14T18:49:25.306Z,16.04
2018-05-14T18:51:51.284Z,16.03
2018-05-14T18:56:48.718Z,15.75
2018-05-14T18:59:14.857Z,15.69
2018-05-14T19:01:41.197Z,15.61
2018-05-14T19:04:07.090Z,15.58
2018-05-14T19:06:33.008Z,15.69
2018-05-14T19:08:59.195Z,15.81
2018-05-14T19:11:31.079Z,15.93
2018-05-14T19:13:56.981Z,15.89
2018-05-14T19:16:29.991Z,15.87
2018-05-14T19:18:55.920Z,15.93
2018-05-14T19:21:21.868Z,15.92
2018-05-14T19:23:53.200Z,15.86
2018-05-14T19:26:19.105Z,15.91
2018-05-14T19:28:51.450Z,15.86
2018-05-14T19:31:17.364Z,15.90
2018-05-14T19:33:49.338Z,15.87
2018-05-14T19:36:15.279Z,15.89
2018-05-14T19:38:41.210Z,15.89
2018-05-14T19:41:07.112Z,15.81
2018-05-14T19:43:33.037Z,15.83
2018-05-14T19:45:58.971Z,15.74
2018-05-14T19:48:24.865Z,15.74
2018-05-14T19:50:50.804Z,15.71
2018-05-14T19:53:16.682Z,15.56
2018-05-14T19:55:42.822Z,15.65
2018-05-14T19:58:08.966Z,15.66
2018-05-14T20:00:34.865Z,15.65
2018-05-14T20:03:00.815Z,15.59
2018-05-14T20:05:26.719Z,15.39
2018-05-14T20:07:52.610Z,15.54
2018-05-14T20:10:18.523Z,15.39
2018-05-14T20:12:44.452Z,15.50
2018-05-14T20:15:10.332Z,15.61
2018-05-14T20:17:36.263Z,15.64
2018-05-14T20:20:02.597Z,15.73
2018-05-14T20:22:28.463Z,15.71
2018-05-14T20:24:54.415Z,15.67
2018-05-14T20:27:20.322Z,15.66
2018-05-14T20:29:46.264Z,15.69
2018-05-14T20:32:12.165Z,15.66
2018-05-14T20:34:38.096Z,15.65
2018-05-14T20:37:04.103Z,15.74
2018-05-14T20:39:29.934Z,15.71
2018-05-14T20:41:56.178Z,15.62
2018-05-14T20:44:22.113Z,15.53
2018-05-14T20:46:48.320Z,15.51
2018-05-14T20:49:14.256Z,15.53
2018-05-14T20:51:40.213Z,15.48
2018-05-14T20:54:06.133Z,15.43
2018-05-14T20:56:32.317Z,15.40
2018-05-14T20:58:58.237Z,15.39
2018-05-14T21:01:24.140Z,15.41
2018-05-14T21:03:50.044Z,15.26
2018-05-14T21:06:16.343Z,15.33
2018-05-14T21:08:42.318Z,15.25
2018-05-14T21:11:08.287Z,15.29
2018-05-14T21:13:34.199Z,15.36
2018-05-14T21:16:00.085Z,15.46
2018-05-14T21:18:26.003Z,15.47
2018-05-14T21:20:51.915Z,15.57
2018-05-14T21:23:17.847Z,15.57
2018-05-14T21:25:47.416Z,15.67
2018-05-14T21:28:13.324Z,15.69
2018-05-14T21:30:40.800Z,15.61
2018-05-14T21:33:06.682Z,15.61
2018-05-14T21:35:36.101Z,15.70
2018-05-14T21:38:02.028Z,15.72
2018-05-14T21:40:31.512Z,15.75
2018-05-14T21:42:57.404Z,15.65
2018-05-14T21:45:24.371Z,15.76
2018-05-14T21:47:50.286Z,15.76
2018-05-14T21:50:16.226Z,15.79
2018-05-14T21:52:42.134Z,15.74
2018-05-14T21:55:08.049Z,15.79
2018-05-14T21:57:37.726Z,15.72
2018-05-14T22:00:03.869Z,15.64
2018-05-14T22:02:31.416Z,15.72
2018-05-14T22:04:57.308Z,15.51
2018-05-14T22:07:26.686Z,15.55
2018-05-14T22:09:52.590Z,15.64
2018-05-14T22:12:22.136Z,15.65
2018-05-14T22:14:49.334Z,15.66
2018-05-14T22:17:15.292Z,15.70
2018-05-14T22:19:41.190Z,15.71
2018-05-14T22:22:10.308Z,15.64
2018-05-14T22:24:36.212Z,15.64
2018-05-14T22:27:02.131Z,15.60
2018-05-14T22:29:27.999Z,15.56
2018-05-14T22:31:53.912Z,15.55
2018-05-14T22:34:21.337Z,15.43
2018-05-14T22:36:47.218Z,15.44
2018-05-14T22:39:15.895Z,15.42
2018-05-14T22:41:41.824Z,15.36
2018-05-14T22:44:10.560Z,15.30
2018-05-14T22:46:36.492Z,15.27
2018-05-14T22:49:05.589Z,15.20
2018-05-14T22:51:31.515Z,15.17
2018-05-14T22:54:00.319Z,15.14
2018-05-14T22:56:26.214Z,15.16
2018-05-14T22:58:55.171Z,15.11
2018-05-14T23:01:21.081Z,15.11
2018-05-14T23:03:46.989Z,15.08
2018-05-14T23:06:12.924Z,15.03
2018-05-14T23:08:38.828Z,15.01
2018-05-14T23:11:07.034Z,14.92
2018-05-14T23:13:32.963Z,14.91
2018-05-14T23:16:02.535Z,14.83
2018-05-14T23:18:28.447Z,14.71
2018-05-14T23:20:57.828Z,14.70
2018-05-14T23:23:23.723Z,14.67
2018-05-14T23:25:50.864Z,14.61
2018-05-14T23:28:16.743Z,14.71
2018-05-14T23:30:46.607Z,14.72
2018-05-14T23:33:12.527Z,14.70
2018-05-14T23:35:41.507Z,14.66
2018-05-14T23:38:07.389Z,14.63
2018-05-14T23:40:33.303Z,14.66
2018-05-14T23:42:59.215Z,14.58
2018-05-14T23:45:25.140Z,14.57
2018-05-14T23:47:52.631Z,14.62
2018-05-14T23:50:18.542Z,14.64
2018-05-14T23:52:46.983Z,14.69
2018-05-14T23:55:12.887Z,14.69
2018-05-14T23:57:41.475Z,14.68
